ROMMA est une association bénévole à but non lucratif. Votre soutien est indispensable : ADHERER à ROMMA ou FAIRE un DON

Le Versoud - (38, Isère)

Vallée du Grésivaudan (220 m)   Longitude: 05° 51' 44" E   Latitude: 45° 13' 06" N Station partenaire n°6
 

Détail journalier du     <<     >>

Température Humidité Pression Vent Dir Rafale Dir. rafale Ensol.
Heure (°C) (%) (hPa) (km/h) (km/h) (min)
01:00 22.370101906NO0
02:00 21.871101802NO0
03:00 20.975101800---0
04:00 20.376101700---0
05:00 19.481101700---0
06:00 18.883101700---0
07:00 18.883101800---0
08:00 21.670101800---55
09:00 23.964101800---60
10:00 26.056101800---60
11:00 26.656101800---60
12:00 28.752101700---60
13:00 30.341101600---60
14:00 31.345101500---5
15:00 32.042101500---55
16:00 33.934101400---60
17:00 34.334101300---60
18:00 34.736101200---60
19:00 34.635101200---60
20:00 31.356101300---25
21:00 29.5611013015SE0
22:00 21.97410218ESE55O0
23:00 21.2771020026N0
minuit 22.56510182NE29NE0

Graphique du 01-07-2019

 

Serveur OMMA